createdAt,value
2022-10-19T00:02:25.267Z,2.72
2022-10-19T00:05:00.025Z,2.70
2022-10-19T00:07:31.908Z,2.72
2022-10-19T00:10:00.982Z,2.90
2022-10-19T00:12:29.827Z,2.85
2022-10-19T00:15:00.975Z,3.05
2022-10-19T00:17:32.058Z,2.97
2022-10-19T00:20:00.666Z,3.00
2022-10-19T00:22:30.744Z,2.90
2022-10-19T00:25:03.657Z,2.90
2022-10-19T00:27:33.876Z,2.63
2022-10-19T00:30:02.653Z,3.20
2022-10-19T00:32:33.723Z,3.25
2022-10-19T00:35:04.060Z,2.90
2022-10-19T00:37:34.487Z,2.95
2022-10-19T00:40:03.496Z,3.08
2022-10-19T00:42:32.600Z,3.30
2022-10-19T00:45:08.619Z,3.22
2022-10-19T00:47:37.454Z,3.40
2022-10-19T00:50:07.644Z,2.72
2022-10-19T00:52:39.322Z,3.00
2022-10-19T00:55:14.486Z,3.05
2022-10-19T00:57:46.430Z,3.10
2022-10-19T01:00:16.422Z,3.10
2022-10-19T01:02:46.365Z,3.47
2022-10-19T01:05:18.882Z,3.10
2022-10-19T01:07:49.000Z,3.78
2022-10-19T01:10:18.465Z,3.88
2022-10-19T01:13:08.326Z,3.40
2022-10-19T01:15:44.923Z,3.25
2022-10-19T01:18:23.113Z,3.63
2022-10-19T01:21:23.942Z,3.25
2022-10-19T01:24:30.283Z,3.05
2022-10-19T01:27:28.796Z,2.70
2022-10-19T01:30:09.399Z,3.47
2022-10-19T01:32:52.681Z,3.53
2022-10-19T01:35:27.392Z,3.28
2022-10-19T01:38:06.420Z,3.17
2022-10-19T01:40:42.403Z,2.65
2022-10-19T01:43:17.852Z,2.83
2022-10-19T01:45:52.968Z,2.90
2022-10-19T01:48:25.937Z,2.90
2022-10-19T01:51:00.431Z,2.35
2022-10-19T01:53:32.149Z,2.92
2022-10-19T01:56:05.288Z,2.72
2022-10-19T01:58:38.479Z,2.40
2022-10-19T02:01:12.581Z,2.25
2022-10-19T02:03:42.718Z,2.38
2022-10-19T02:06:15.959Z,2.28
2022-10-19T02:08:49.622Z,2.92
2022-10-19T02:11:20.292Z,2.28
2022-10-19T02:13:54.904Z,2.25
2022-10-19T02:16:29.417Z,2.60
2022-10-19T02:19:02.252Z,2.60
2022-10-19T02:21:33.860Z,2.22
2022-10-19T02:24:02.610Z,2.00
2022-10-19T02:26:32.829Z,2.28
2022-10-19T02:29:02.474Z,2.55
2022-10-19T02:31:32.668Z,2.90
2022-10-19T02:34:01.289Z,2.75
2022-10-19T02:36:30.197Z,2.88
2022-10-19T02:39:00.167Z,3.10
2022-10-19T02:41:38.231Z,2.60
2022-10-19T02:44:15.296Z,2.58
2022-10-19T02:46:51.502Z,3.15
2022-10-19T02:49:21.405Z,3.42
2022-10-19T02:52:02.032Z,2.75
2022-10-19T02:54:33.190Z,2.75
2022-10-19T02:57:05.035Z,2.58
2022-10-19T02:59:33.568Z,2.63
2022-10-19T03:02:04.063Z,3.30
2022-10-19T03:04:33.347Z,2.45
2022-10-19T03:07:03.905Z,2.58
2022-10-19T03:09:34.325Z,2.72
2022-10-19T03:12:04.464Z,2.67
2022-10-19T03:14:33.675Z,2.55
2022-10-19T03:17:05.196Z,2.47
2022-10-19T03:19:34.005Z,2.42
2022-10-19T03:22:02.916Z,2.60
2022-10-19T03:24:32.462Z,2.63
2022-10-19T03:27:02.373Z,2.22
2022-10-19T03:29:31.020Z,2.78
2022-10-19T03:32:00.404Z,2.20
2022-10-19T03:34:30.702Z,2.50
2022-10-19T03:37:01.494Z,1.90
2022-10-19T03:39:30.074Z,2.30
2022-10-19T03:41:58.892Z,2.42
2022-10-19T03:44:27.709Z,2.97
2022-10-19T03:46:56.482Z,2.70
2022-10-19T03:49:27.306Z,3.00
2022-10-19T03:51:57.191Z,3.05
2022-10-19T03:54:27.593Z,3.42
2022-10-19T03:56:57.334Z,3.17
2022-10-19T03:59:26.068Z,3.10
2022-10-19T04:01:54.913Z,3.75
2022-10-19T04:04:23.499Z,3.92
2022-10-19T04:06:54.143Z,3.53
2022-10-19T04:09:25.501Z,3.95
2022-10-19T04:11:53.955Z,4.10
2022-10-19T04:14:32.042Z,4.47
2022-10-19T04:17:01.655Z,4.25
2022-10-19T04:19:31.904Z,4.50
2022-10-19T04:22:01.717Z,3.88
2022-10-19T04:24:31.718Z,4.38
2022-10-19T04:27:00.150Z,4.45
2022-10-19T04:29:30.091Z,4.10
2022-10-19T04:31:59.746Z,3.75
2022-10-19T04:34:28.762Z,3.65
2022-10-19T04:36:59.638Z,4.82
2022-10-19T04:39:28.111Z,4.50
2022-10-19T04:41:58.300Z,4.28
2022-10-19T04:44:26.948Z,4.25
2022-10-19T04:46:55.403Z,4.40
2022-10-19T04:49:23.938Z,4.40
2022-10-19T04:51:52.345Z,4.18
2022-10-19T04:54:20.855Z,3.88
2022-10-19T04:56:50.246Z,4.43
2022-10-19T04:59:20.318Z,4.32
2022-10-19T05:01:48.797Z,4.68
2022-10-19T05:04:17.299Z,3.88
2022-10-19T05:06:46.065Z,4.05
2022-10-19T05:09:15.135Z,4.93
2022-10-19T05:11:43.504Z,4.82
2022-10-19T05:14:11.944Z,4.25
2022-10-19T05:16:42.468Z,4.18
2022-10-19T05:19:14.516Z,4.80
2022-10-19T05:21:43.097Z,4.38
2022-10-19T05:24:14.331Z,4.35
2022-10-19T05:26:45.356Z,3.75
2022-10-19T05:29:16.012Z,4.50
2022-10-19T05:31:46.082Z,3.83
2022-10-19T05:34:14.977Z,4.50
2022-10-19T05:36:43.326Z,4.00
2022-10-19T05:39:16.299Z,4.28
2022-10-19T05:41:47.576Z,3.97
2022-10-19T05:44:17.604Z,4.00
2022-10-19T05:46:48.201Z,3.65
2022-10-19T05:49:18.730Z,4.72
2022-10-19T05:51:48.122Z,4.63
2022-10-19T05:54:17.516Z,4.45
2022-10-19T05:56:46.132Z,4.40
2022-10-19T05:59:20.888Z,4.55
2022-10-19T06:01:51.629Z,5.00
2022-10-19T06:04:20.286Z,5.30
2022-10-19T06:06:49.170Z,5.40
2022-10-19T06:09:17.668Z,5.88
2022-10-19T06:11:46.295Z,7.30
2022-10-19T06:14:16.478Z,6.88
2022-10-19T06:16:46.402Z,7.70
2022-10-19T06:19:16.550Z,6.90
2022-10-19T06:21:47.104Z,6.97
2022-10-19T06:27:56.517Z,7.75
2022-10-19T06:30:25.334Z,7.80
2022-10-19T06:32:54.318Z,7.50
2022-10-19T06:35:24.416Z,7.90
2022-10-19T06:37:52.730Z,7.65
2022-10-19T06:40:21.275Z,8.55
2022-10-19T06:42:49.788Z,8.32
2022-10-19T06:45:18.661Z,8.15
2022-10-19T06:50:16.131Z,8.18
2022-10-19T06:52:46.355Z,7.38
2022-10-19T06:55:14.884Z,7.18
2022-10-19T06:57:43.293Z,7.80
2022-10-19T07:00:13.953Z,7.45
2022-10-19T07:02:42.332Z,7.85
2022-10-19T07:05:11.520Z,8.32
2022-10-19T07:07:39.889Z,8.48
2022-10-19T07:10:10.665Z,8.43
2022-10-19T07:12:41.087Z,9.25
2022-10-19T07:15:11.819Z,8.20
2022-10-19T07:17:40.177Z,9.45
2022-10-19T07:20:09.176Z,9.23
2022-10-19T07:22:37.777Z,8.90
2022-10-19T07:25:12.630Z,9.30
2022-10-19T07:27:43.824Z,10.10
2022-10-19T07:30:13.053Z,10.15
2022-10-19T07:32:46.786Z,10.88
2022-10-19T07:35:16.286Z,10.40
2022-10-19T07:37:44.578Z,10.45
2022-10-19T07:40:14.679Z,11.50
2022-10-19T07:42:44.664Z,12.40
2022-10-19T07:45:13.470Z,11.07
2022-10-19T07:47:41.740Z,12.02
2022-10-19T07:50:10.926Z,12.48
2022-10-19T07:52:39.688Z,12.15
2022-10-19T07:55:08.779Z,12.32
2022-10-19T07:57:38.036Z,11.68
2022-10-19T08:00:11.523Z,12.35
2022-10-19T08:02:59.724Z,11.52
2022-10-19T08:05:29.337Z,12.00
2022-10-19T08:07:58.119Z,10.93
2022-10-19T08:10:26.942Z,10.68
2022-10-19T08:12:55.436Z,10.85
2022-10-19T08:15:26.631Z,11.20
2022-10-19T08:17:55.388Z,11.40
2022-10-19T08:20:23.980Z,11.02
2022-10-19T08:22:56.453Z,11.43
2022-10-19T08:25:28.007Z,10.32
2022-10-19T08:27:56.239Z,10.45
2022-10-19T08:30:26.865Z,9.30
2022-10-19T08:32:55.932Z,9.52
2022-10-19T08:35:24.393Z,9.18
2022-10-19T08:37:53.939Z,9.57
2022-10-19T08:40:26.403Z,9.43
2022-10-19T08:43:03.779Z,9.88
2022-10-19T08:45:44.350Z,10.02
2022-10-19T08:48:26.619Z,9.93
2022-10-19T08:50:56.285Z,10.68
2022-10-19T08:53:35.482Z,9.95
2022-10-19T08:56:26.933Z,10.00
2022-10-19T08:59:13.420Z,11.23
2022-10-19T09:01:48.212Z,11.25
2022-10-19T09:04:24.745Z,12.48
2022-10-19T09:07:09.652Z,12.95
2022-10-19T09:12:21.994Z,12.90
2022-10-19T09:14:58.382Z,13.55
2022-10-19T09:17:30.292Z,12.70
2022-10-19T09:20:00.382Z,12.68
2022-10-19T09:22:34.101Z,12.35
2022-10-19T09:25:10.354Z,13.32
2022-10-19T09:27:41.632Z,12.32
2022-10-19T09:30:20.345Z,12.15
2022-10-19T09:32:53.761Z,11.38
2022-10-19T09:35:29.615Z,11.68
2022-10-19T09:37:58.771Z,10.68
2022-10-19T09:40:29.126Z,9.90
2022-10-19T09:42:59.266Z,9.38
2022-10-19T09:45:38.181Z,9.02
2022-10-19T09:48:29.427Z,10.23
2022-10-19T09:51:00.825Z,9.75
2022-10-19T09:53:30.767Z,9.95
2022-10-19T09:56:02.580Z,8.75
2022-10-19T09:58:33.257Z,8.70
2022-10-19T10:01:04.003Z,8.10
2022-10-19T10:03:36.496Z,7.40
2022-10-19T10:06:08.360Z,6.60
2022-10-19T10:08:39.568Z,5.30
2022-10-19T10:11:12.334Z,5.88
2022-10-19T10:13:43.161Z,7.47
2022-10-19T10:16:16.935Z,8.15
2022-10-19T10:18:55.816Z,8.13
2022-10-19T10:21:27.308Z,7.43
2022-10-19T10:24:18.187Z,7.05
2022-10-19T10:26:49.728Z,7.05
2022-10-19T10:29:22.188Z,7.32
2022-10-19T10:31:57.042Z,6.30
2022-10-19T10:34:46.074Z,6.72
2022-10-19T10:37:23.955Z,8.60
2022-10-19T10:39:56.668Z,8.40
2022-10-19T10:42:31.452Z,8.15
2022-10-19T10:45:01.208Z,7.63
2022-10-19T10:47:31.370Z,7.13
2022-10-19T10:50:06.017Z,7.10
2022-10-19T10:52:37.331Z,7.55
2022-10-19T10:55:18.897Z,7.90
2022-10-19T10:57:51.602Z,7.28
2022-10-19T11:00:22.560Z,7.78
2022-10-19T11:02:58.038Z,8.30
2022-10-19T11:05:32.573Z,8.07
2022-10-19T11:08:09.194Z,9.35
2022-10-19T11:10:48.393Z,9.57
2022-10-19T11:13:26.128Z,8.50
2022-10-19T11:15:57.799Z,8.90
2022-10-19T11:18:31.901Z,7.90
2022-10-19T11:21:08.487Z,7.60
2022-10-19T11:23:48.238Z,7.47
2022-10-19T11:26:37.022Z,8.07
2022-10-19T11:29:25.743Z,7.90
2022-10-19T11:31:57.084Z,8.48
2022-10-19T11:34:53.877Z,7.30
2022-10-19T11:37:30.420Z,7.95
2022-10-19T11:40:09.835Z,8.05
2022-10-19T11:42:58.498Z,8.00
2022-10-19T11:45:44.384Z,7.97
2022-10-19T11:48:34.403Z,7.95
2022-10-19T11:51:20.952Z,8.70
2022-10-19T11:54:08.193Z,7.35
2022-10-19T11:57:02.542Z,7.80
2022-10-19T11:59:44.417Z,7.15
2022-10-19T12:02:29.423Z,7.15
2022-10-19T12:05:01.771Z,8.45
2022-10-19T12:07:45.433Z,7.45
2022-10-19T12:10:30.827Z,8.52
2022-10-19T12:13:04.158Z,8.05
2022-10-19T12:15:36.974Z,8.30
2022-10-19T12:18:13.485Z,8.32
2022-10-19T12:20:47.937Z,8.80
2022-10-19T12:27:01.691Z,7.53
2022-10-19T12:29:33.776Z,8.40
2022-10-19T12:32:06.782Z,7.55
2022-10-19T12:34:48.801Z,9.18
2022-10-19T12:37:26.668Z,8.77
2022-10-19T12:39:58.390Z,9.20
2022-10-19T12:42:31.374Z,9.38
2022-10-19T12:45:30.693Z,9.75
2022-10-19T12:48:21.310Z,10.35
2022-10-19T12:51:21.098Z,11.38
2022-10-19T12:53:50.675Z,10.52
2022-10-19T12:56:27.289Z,10.40
2022-10-19T12:59:25.138Z,11.40
2022-10-19T13:02:00.707Z,9.38
2022-10-19T13:09:42.985Z,10.52
2022-10-19T13:12:47.293Z,10.68
2022-10-19T13:15:59.359Z,10.05
2022-10-19T13:19:07.559Z,9.35
2022-10-19T13:21:53.198Z,8.55
2022-10-19T13:27:41.409Z,10.35
2022-10-19T13:31:04.861Z,9.52
2022-10-19T13:33:49.123Z,9.77
2022-10-19T13:36:17.903Z,9.43
2022-10-19T13:39:03.864Z,9.90
2022-10-19T13:41:49.811Z,9.48
2022-10-19T13:44:25.380Z,9.90
2022-10-19T13:47:29.852Z,10.50
2022-10-19T13:50:31.690Z,8.82
2022-10-19T13:53:21.495Z,7.68
2022-10-19T13:56:10.296Z,7.97
2022-10-19T13:59:10.975Z,6.45
2022-10-19T14:01:55.246Z,6.22
2022-10-19T14:04:36.523Z,6.72
2022-10-19T14:07:14.002Z,6.15
2022-10-19T14:10:04.360Z,7.50
2022-10-19T14:18:06.160Z,6.03
2022-10-19T14:20:35.720Z,6.40
2022-10-19T14:23:20.888Z,5.90
2022-10-19T14:25:54.416Z,6.55
2022-10-19T14:28:24.165Z,6.63
2022-10-19T14:31:00.905Z,5.95
2022-10-19T14:33:33.675Z,5.72
2022-10-19T14:36:03.281Z,6.47
2022-10-19T14:38:36.462Z,5.22
2022-10-19T14:44:46.384Z,5.65
2022-10-19T14:49:52.554Z,5.45
2022-10-19T15:07:40.446Z,6.00
2022-10-19T15:29:26.571Z,6.88
2022-10-19T15:32:38.529Z,5.88
2022-10-19T15:39:24.497Z,7.03
2022-10-19T15:42:20.055Z,6.97
2022-10-19T15:44:52.411Z,7.65
2022-10-19T15:47:27.233Z,7.15
2022-10-19T15:50:33.740Z,6.38
2022-10-19T15:53:35.336Z,6.88
2022-10-19T15:58:34.896Z,6.75
2022-10-19T16:01:03.409Z,6.25
2022-10-19T16:03:39.863Z,6.57
2022-10-19T16:06:15.204Z,6.50
2022-10-19T16:08:47.516Z,6.15
2022-10-19T16:11:34.337Z,5.65
2022-10-19T16:14:14.127Z,5.75
2022-10-19T16:16:45.433Z,5.80
2022-10-19T16:19:15.466Z,5.45
2022-10-19T16:21:49.321Z,5.85
2022-10-19T16:24:20.069Z,6.15
2022-10-19T16:26:48.958Z,5.55
2022-10-19T16:29:28.238Z,5.55
2022-10-19T16:31:57.678Z,4.80
2022-10-19T16:34:28.552Z,5.28
2022-10-19T16:36:56.967Z,5.43
2022-10-19T16:39:27.112Z,5.70
2022-10-19T16:41:55.484Z,5.22
2022-10-19T16:44:25.173Z,5.75
2022-10-19T16:46:53.566Z,5.38
2022-10-19T16:49:23.438Z,5.57
2022-10-19T16:51:56.286Z,5.38
2022-10-19T16:54:30.680Z,5.70
2022-10-19T16:56:59.668Z,6.22
2022-10-19T16:59:34.287Z,6.45
2022-10-19T17:12:33.503Z,6.18
2022-10-19T17:19:30.503Z,6.10
2022-10-19T17:25:34.799Z,6.15
2022-10-19T17:28:10.460Z,5.70
2022-10-19T17:30:43.822Z,5.63
2022-10-19T17:33:12.580Z,5.85
2022-10-19T17:35:43.961Z,6.47
2022-10-19T17:38:14.778Z,6.18
2022-10-19T17:40:45.198Z,5.60
2022-10-19T17:43:15.397Z,6.00
2022-10-19T17:48:17.627Z,6.55
2022-10-19T17:50:47.293Z,7.75
2022-10-19T17:53:51.134Z,6.30
2022-10-19T17:56:53.824Z,5.60
2022-10-19T17:59:55.610Z,6.35
2022-10-19T18:02:25.567Z,5.57
2022-10-19T18:05:03.025Z,6.07
2022-10-19T18:07:44.715Z,5.40
2022-10-19T18:10:29.391Z,5.97
2022-10-19T18:13:10.226Z,5.88
2022-10-19T18:15:41.738Z,5.00
2022-10-19T18:18:37.042Z,5.80
2022-10-19T18:21:39.977Z,5.90
2022-10-19T18:24:23.368Z,6.13
2022-10-19T18:27:23.020Z,5.90
2022-10-19T18:30:29.805Z,5.30
2022-10-19T18:33:12.382Z,6.07
2022-10-19T18:35:51.707Z,6.10
2022-10-19T18:38:37.966Z,5.97
2022-10-19T18:41:25.799Z,6.28
2022-10-19T18:44:05.900Z,6.55
2022-10-19T18:46:40.840Z,5.57
2022-10-19T18:49:10.089Z,7.88
2022-10-19T18:51:40.590Z,6.07
2022-10-19T18:54:09.384Z,6.22
2022-10-19T18:56:38.614Z,5.82
2022-10-19T18:59:07.160Z,6.53
2022-10-19T19:01:35.877Z,6.38
2022-10-19T19:04:14.814Z,5.78
2022-10-19T19:06:45.143Z,5.85
2022-10-19T19:09:14.469Z,6.40
2022-10-19T19:11:42.984Z,5.78
2022-10-19T19:14:14.972Z,5.80
2022-10-19T19:16:44.664Z,5.90
2022-10-19T19:19:14.383Z,5.57
2022-10-19T19:21:45.273Z,6.25
2022-10-19T19:24:16.356Z,6.60
2022-10-19T19:26:48.707Z,6.25
2022-10-19T19:29:18.347Z,6.53
2022-10-19T19:31:47.345Z,5.25
2022-10-19T19:34:16.030Z,5.93
2022-10-19T19:36:48.954Z,6.15
2022-10-19T19:39:20.369Z,5.20
2022-10-19T19:41:49.616Z,5.50
2022-10-19T19:44:19.018Z,6.03
2022-10-19T19:46:48.643Z,6.18
2022-10-19T19:49:17.450Z,6.05
2022-10-19T19:51:47.872Z,6.15
2022-10-19T19:54:17.511Z,6.05
2022-10-19T19:56:46.105Z,5.82
2022-10-19T19:59:14.811Z,5.57
2022-10-19T20:01:44.475Z,6.00
2022-10-19T20:04:13.982Z,5.85
2022-10-19T20:06:44.676Z,6.38
2022-10-19T20:09:14.931Z,5.55
2022-10-19T20:11:43.300Z,6.13
2022-10-19T20:14:12.255Z,6.38
2022-10-19T20:16:40.746Z,6.10
2022-10-19T20:19:11.767Z,6.20
2022-10-19T20:21:40.596Z,6.43
2022-10-19T20:24:09.953Z,6.28
2022-10-19T20:26:40.034Z,5.65
2022-10-19T20:29:11.133Z,6.68
2022-10-19T20:31:41.928Z,6.18
2022-10-19T20:34:13.444Z,5.25
2022-10-19T20:36:47.049Z,5.88
2022-10-19T20:39:17.380Z,5.72
2022-10-19T20:41:47.864Z,5.28
2022-10-19T20:44:17.600Z,5.47
2022-10-19T20:46:48.161Z,5.70
2022-10-19T20:49:41.676Z,5.97
2022-10-19T20:52:11.179Z,5.78
2022-10-19T20:54:42.452Z,6.90
2022-10-19T20:57:13.845Z,6.45
2022-10-19T20:59:46.627Z,6.40
2022-10-19T21:02:16.686Z,6.55
2022-10-19T21:04:47.147Z,6.30
2022-10-19T21:07:17.703Z,5.90
2022-10-19T21:09:46.584Z,7.30
2022-10-19T21:12:17.709Z,6.30
2022-10-19T21:14:48.434Z,7.70
2022-10-19T21:17:18.380Z,6.90
2022-10-19T21:19:48.563Z,7.57
2022-10-19T21:22:17.972Z,7.85
2022-10-19T21:24:48.148Z,7.28
2022-10-19T21:27:18.891Z,7.95
2022-10-19T21:29:49.046Z,7.80
2022-10-19T21:32:19.128Z,9.88
2022-10-19T21:34:49.259Z,7.40
2022-10-19T21:37:17.727Z,8.43
2022-10-19T21:39:48.151Z,8.20
2022-10-19T21:42:20.650Z,8.38
2022-10-19T21:44:54.074Z,8.93
2022-10-19T21:47:31.063Z,9.35
2022-10-19T21:50:02.524Z,9.05
2022-10-19T21:52:32.420Z,9.18
2022-10-19T21:55:03.289Z,8.68
2022-10-19T21:57:33.810Z,10.00
2022-10-19T22:00:02.438Z,9.52
2022-10-19T22:02:30.904Z,9.15
2022-10-19T22:04:59.269Z,8.98
2022-10-19T22:07:27.549Z,10.80
2022-10-19T22:09:56.823Z,9.20
2022-10-19T22:12:25.456Z,8.85
2022-10-19T22:14:55.318Z,8.98
2022-10-19T22:17:23.669Z,8.80
2022-10-19T22:19:52.470Z,8.30
2022-10-19T22:22:21.376Z,8.80
2022-10-19T22:24:49.968Z,8.50
2022-10-19T22:27:18.427Z,8.63
2022-10-19T22:29:47.054Z,8.82
2022-10-19T22:32:17.286Z,8.30
2022-10-19T22:34:45.618Z,7.82
2022-10-19T22:37:14.289Z,8.75
2022-10-19T22:39:43.083Z,8.88
2022-10-19T22:43:06.837Z,8.88
2022-10-19T22:45:35.566Z,9.45
2022-10-19T22:48:05.801Z,9.90
2022-10-19T22:50:34.520Z,8.23
2022-10-19T22:53:03.190Z,8.45
2022-10-19T22:55:32.995Z,8.48
2022-10-19T22:58:04.793Z,8.40
2022-10-19T23:00:33.575Z,9.25
2022-10-19T23:03:02.020Z,8.93
2022-10-19T23:05:31.986Z,8.68
2022-10-19T23:08:00.566Z,9.32
2022-10-19T23:10:29.602Z,8.45
2022-10-19T23:12:58.145Z,8.88
2022-10-19T23:15:26.545Z,8.65
2022-10-19T23:17:55.167Z,9.48
2022-10-19T23:20:23.777Z,8.50
2022-10-19T23:22:54.134Z,9.18
2022-10-19T23:25:22.648Z,8.55
2022-10-19T23:27:51.422Z,9.30
2022-10-19T23:30:20.037Z,8.57
2022-10-19T23:32:48.423Z,8.88
2022-10-19T23:35:17.277Z,8.68
2022-10-19T23:37:45.869Z,8.80
2022-10-19T23:40:16.259Z,8.93
2022-10-19T23:42:46.102Z,9.38
2022-10-19T23:45:15.643Z,9.55
2022-10-19T23:47:44.286Z,9.38
2022-10-19T23:50:13.143Z,9.40
2022-10-19T23:52:41.892Z,9.68
2022-10-19T23:55:11.346Z,9.50
2022-10-19T23:57:41.392Z,8.70
